Terminal Aerodrome Forecast
Issued by NWS

Home | Current Version | Previous Version | Text Only | Print | Product List | Glossary On
Versions: 1 2 3 4 5 6 7 8 9 10 11 12 13 14 15 16 17 18 19 20
000
FTUS43 KJKL 020532
TAFSJS
TAF
KSJS 020532Z 0206/0306 00000KT 4SM BR BKN050
      TEMPO 0206/0208 1SM BR
     FM020800 VRB03KT 2SM BR VCSH OVC010
     FM021400 22007KT P6SM VCTS SCT015 BKN030CB
     FM030200 VRB03KT 3SM BR VCSH BKN015=

USA.gov is the U.S. government's official web portal to all federal, state and local government web resources and services.